Time;durP1;ratioP1;P1;durP2;ratioP2;P2;SDS_P1;SDS_P2;PMS_P1;PMS_P2;Temp;Humidity;BMP_temperature;BMP_pressure;BME280_temperature;BME280_humidity;BME280_pressure;Samples;Min_cycle;Max_cycle;Signal;HPM_P1;HPM_P2
2022/05/04 00:01:03;;;;;;;3.88;3.55;;;15.40;99.90;;;;;;5090055;28;20260;-71
2022/05/04 00:03:31;;;;;;;4.20;3.65;;;15.40;99.90;;;;;;5089473;28;20230;-70
2022/05/04 00:05:59;;;;;;;7.25;4.45;;;15.50;99.90;;;;;;5089849;28;20264;-70
2022/05/04 00:08:27;;;;;;;3.97;3.67;;;15.50;99.90;;;;;;5084769;28;20616;-71
2022/05/04 00:10:55;;;;;;;3.40;3.20;;;15.60;99.90;;;;;;5090294;28;20630;-71
2022/05/04 00:13:23;;;;;;;5.10;4.07;;;15.60;99.90;;;;;;5089657;28;20234;-71
2022/05/04 00:15:51;;;;;;;3.90;3.50;;;15.50;99.90;;;;;;5078501;28;20202;-70
2022/05/04 00:18:20;;;;;;;4.15;3.85;;;15.50;99.90;;;;;;5089052;28;20209;-72
2022/05/04 00:20:48;;;;;;;3.92;3.65;;;15.50;99.90;;;;;;5090182;28;20203;-71
2022/05/04 00:23:16;;;;;;;3.80;3.50;;;15.50;99.90;;;;;;5087664;28;20238;-70
2022/05/04 00:25:44;;;;;;;4.85;3.55;;;15.50;99.90;;;;;;5082721;28;20202;-71
2022/05/04 00:28:12;;;;;;;7.20;4.40;;;15.50;99.90;;;;;;5068578;28;20204;-71
2022/05/04 00:30:40;;;;;;;3.88;3.47;;;15.50;99.90;;;;;;5063738;28;20679;-71
2022/05/04 00:33:08;;;;;;;5.38;3.53;;;15.50;99.90;;;;;;5061088;28;20755;-70
2022/05/04 00:35:38;;;;;;;3.70;3.38;;;15.50;99.90;;;;;;5070109;28;20615;-72
2022/05/04 00:38:06;;;;;;;3.97;3.67;;;15.50;99.90;;;;;;5069497;28;20207;-70
2022/05/04 00:40:34;;;;;;;3.78;3.47;;;15.50;99.90;;;;;;5066702;28;20192;-71
2022/05/04 00:43:02;;;;;;;4.05;3.65;;;15.40;99.90;;;;;;5080479;28;20230;-69
2022/05/04 00:45:31;;;;;;;3.45;3.15;;;15.40;99.90;;;;;;5076378;28;20194;-71
2022/05/04 00:47:58;;;;;;;4.65;4.25;;;15.30;99.90;;;;;;5083879;28;20203;-71
2022/05/04 00:50:26;;;;;;;4.28;3.97;;;15.20;99.90;;;;;;5089433;28;20271;-71
2022/05/04 00:52:56;;;;;;;4.18;3.88;;;15.20;99.90;;;;;;5076582;28;20215;-71
2022/05/04 00:55:24;;;;;;;7.80;4.20;;;15.10;99.90;;;;;;5085992;28;20217;-71
2022/05/04 01:00:38;;;;;;;3.80;3.50;;;14.90;99.90;;;;;;5089389;28;20206;-70
2022/05/04 01:03:06;;;;;;;4.40;4.10;;;14.80;99.90;;;;;;5083982;28;20468;-72
2022/05/04 01:05:34;;;;;;;5.22;4.80;;;14.60;99.90;;;;;;5069778;28;20199;-73
2022/05/04 01:08:04;;;;;;;4.82;4.32;;;14.80;99.90;;;;;;5073781;28;20195;-72
2022/05/04 01:10:32;;;;;;;4.63;3.97;;;14.60;99.90;;;;;;5073594;28;20218;-71
2022/05/04 01:13:00;;;;;;;4.28;3.88;;;14.60;99.90;;;;;;5072738;28;20216;-71
2022/05/04 01:15:28;;;;;;;4.22;4.03;;;14.50;99.90;;;;;;5075687;28;20553;-71
2022/05/04 01:17:56;;;;;;;4.80;4.40;;;14.50;99.90;;;;;;5090277;28;20209;-71
2022/05/04 01:20:24;;;;;;;4.90;4.20;;;14.30;99.90;;;;;;5092892;28;20663;-71
2022/05/04 01:22:54;;;;;;;4.93;4.53;;;14.30;99.90;;;;;;5090350;28;20235;-71
2022/05/04 01:25:23;;;;;;;4.90;4.40;;;14.10;99.90;;;;;;5092517;28;20198;-68
2022/05/04 01:27:51;;;;;;;3.88;3.58;;;14.10;99.90;;;;;;5092835;28;20210;-71
2022/05/04 01:30:18;;;;;;;5.05;3.80;;;14.10;99.90;;;;;;5092545;28;20198;-71
2022/05/04 01:32:47;;;;;;;5.43;4.82;;;14.10;99.90;;;;;;5089407;28;20222;-71
2022/05/04 01:35:15;;;;;;;4.63;4.22;;;14.00;99.90;;;;;;5092020;28;20207;-71
2022/05/04 01:37:43;;;;;;;4.53;4.18;;;14.00;99.90;;;;;;5092343;28;20186;-71
2022/05/04 01:40:12;;;;;;;4.40;4.07;;;14.00;99.90;;;;;;5092628;28;20225;-71
2022/05/04 01:42:40;;;;;;;5.07;4.68;;;14.00;99.90;;;;;;5091277;28;20230;-71
2022/05/04 01:45:09;;;;;;;4.88;4.47;;;14.00;99.90;;;;;;5079052;28;20214;-70
2022/05/04 01:47:38;;;;;;;4.40;4.13;;;14.00;99.90;;;;;;5079558;28;20195;-71
2022/05/04 01:50:07;;;;;;;6.35;4.70;;;14.10;99.90;;;;;;5087756;28;20555;-70
2022/05/04 01:52:35;;;;;;;4.70;4.30;;;14.10;99.90;;;;;;5090487;28;20217;-71
2022/05/04 01:55:03;;;;;;;4.05;2.75;;;14.00;99.90;;;;;;5090783;28;20214;-70
2022/05/04 01:57:32;;;;;;;6.18;4.70;;;14.00;99.90;;;;;;5092029;28;20203;-70
2022/05/04 02:00:00;;;;;;;5.55;4.25;;;14.00;99.90;;;;;;5091965;28;20198;-70
2022/05/04 02:02:28;;;;;;;4.70;4.30;;;14.00;99.90;;;;;;5091119;28;20237;-72
2022/05/04 02:04:56;;;;;;;4.13;3.83;;;13.80;99.90;;;;;;5091785;28;20198;-67
2022/05/04 02:07:24;;;;;;;4.45;4.05;;;13.80;99.90;;;;;;5085252;28;20240;-73
2022/05/04 02:09:52;;;;;;;4.53;4.05;;;13.90;99.90;;;;;;5091846;28;20199;-72
2022/05/04 02:12:21;;;;;;;4.47;4.07;;;13.90;99.90;;;;;;5090904;28;20271;-71
2022/05/04 02:14:51;;;;;;;4.75;3.72;;;13.90;99.90;;;;;;5081116;28;20211;-73
2022/05/04 02:17:18;;;;;;;4.10;3.70;;;13.90;99.90;;;;;;5071606;28;20256;-72
2022/05/04 02:19:46;;;;;;;4.30;4.05;;;14.00;99.90;;;;;;5081955;28;20577;-72
2022/05/04 02:22:15;;;;;;;4.78;4.30;;;14.00;99.90;;;;;;5070911;28;20325;-72
2022/05/04 02:24:43;;;;;;;3.88;3.67;;;14.10;99.90;;;;;;5088759;28;20213;-72
2022/05/04 02:27:11;;;;;;;4.20;3.80;;;14.00;99.90;;;;;;5091124;28;20202;-71
2022/05/04 02:29:39;;;;;;;4.25;3.95;;;13.90;99.90;;;;;;5091474;28;20228;-71
2022/05/04 02:32:09;;;;;;;4.70;4.30;;;13.80;99.90;;;;;;5090498;28;20218;-69
2022/05/04 02:37:54;;;;;;;4.32;4.03;;;13.70;99.90;;;;;;5091185;28;20255;-71
2022/05/04 02:40:10;;;;;;;5.07;4.65;;;13.40;99.90;;;;;;5074413;28;20218;-71
2022/05/04 02:42:38;;;;;;;5.07;4.63;;;13.30;99.90;;;;;;5072432;28;20221;-71
2022/05/04 02:45:07;;;;;;;4.82;4.30;;;13.20;99.90;;;;;;5079296;28;20270;-71
2022/05/04 02:47:39;;;;;;;4.50;4.20;;;13.20;99.90;;;;;;5079742;28;20205;-72
2022/05/04 02:50:14;;;;;;;4.57;4.28;;;13.20;99.90;;;;;;5091321;28;20248;-71
2022/05/04 02:52:42;;;;;;;4.57;4.18;;;13.20;99.90;;;;;;5090583;28;20219;-71
2022/05/04 02:55:10;;;;;;;4.07;3.67;;;13.30;99.90;;;;;;5091372;28;20259;-71
2022/05/04 02:57:39;;;;;;;5.70;5.03;;;13.50;99.90;;;;;;5084820;28;20202;-71
2022/05/04 03:00:08;;;;;;;5.63;4.88;;;13.60;99.90;;;;;;5090855;28;20210;-71
2022/05/04 03:02:37;;;;;;;7.55;4.65;;;13.70;99.90;;;;;;5089195;28;20581;-72
2022/05/04 03:05:07;;;;;;;5.15;4.65;;;13.70;99.90;;;;;;5090291;28;20244;-71
2022/05/04 03:07:36;;;;;;;4.80;4.40;;;13.70;99.90;;;;;;5053621;28;20572;-71
2022/05/04 03:10:04;;;;;;;5.63;4.43;;;13.70;99.90;;;;;;5064800;28;20206;-71
2022/05/04 03:12:32;;;;;;;6.18;4.57;;;13.70;99.90;;;;;;5064170;28;20742;-71
2022/05/04 03:15:00;;;;;;;4.00;3.70;;;13.50;99.90;;;;;;5068690;28;20681;-71
2022/05/04 03:17:29;;;;;;;5.00;4.50;;;13.50;99.90;;;;;;5079385;28;20737;-72
2022/05/04 03:19:59;;;;;;;4.50;4.20;;;13.60;99.90;;;;;;5065126;28;20231;-71
2022/05/04 03:22:27;;;;;;;4.53;4.13;;;13.60;99.90;;;;;;5070182;28;20243;-72
2022/05/04 03:24:55;;;;;;;6.32;4.05;;;13.60;99.90;;;;;;5072560;28;20248;-72
2022/05/04 03:27:23;;;;;;;4.00;3.70;;;13.60;99.90;;;;;;5071037;28;20207;-72
2022/05/04 03:29:51;;;;;;;4.70;4.30;;;13.60;99.90;;;;;;5071264;28;20199;-72
2022/05/04 03:32:19;;;;;;;3.50;3.30;;;13.60;99.90;;;;;;5070162;28;20226;-72
2022/05/04 03:34:48;;;;;;;4.72;4.32;;;13.60;99.90;;;;;;5071252;28;20211;-72
2022/05/04 03:37:17;;;;;;;4.50;4.20;;;13.50;99.90;;;;;;5071031;28;20206;-72
2022/05/04 03:39:45;;;;;;;3.88;3.58;;;13.50;99.90;;;;;;5071174;28;20210;-72
2022/05/04 03:42:13;;;;;;;5.05;4.65;;;13.50;99.90;;;;;;5070153;28;20222;-73
2022/05/04 03:44:41;;;;;;;4.75;4.35;;;13.50;99.90;;;;;;5070916;28;20719;-72
2022/05/04 03:47:09;;;;;;;4.28;3.72;;;13.50;99.90;;;;;;5076170;28;20210;-72
2022/05/04 03:49:37;;;;;;;4.47;4.18;;;13.50;99.90;;;;;;5085115;28;20217;-72
2022/05/04 03:52:05;;;;;;;5.75;4.38;;;13.60;99.90;;;;;;5089698;28;20963;-75
2022/05/04 03:54:34;;;;;;;3.90;3.65;;;13.60;99.90;;;;;;5089892;28;20205;-71
2022/05/04 03:57:02;;;;;;;6.15;4.03;;;13.60;99.90;;;;;;5090124;28;20256;-72
2022/05/04 03:59:31;;;;;;;4.70;4.30;;;13.60;99.90;;;;;;5090304;28;20205;-71
2022/05/04 04:01:59;;;;;;;4.38;4.05;;;13.50;99.90;;;;;;5089699;28;20226;-69
2022/05/04 04:04:27;;;;;;;5.20;4.68;;;13.40;99.90;;;;;;5088538;28;20218;-71
2022/05/04 04:06:55;;;;;;;5.20;4.70;;;13.30;99.90;;;;;;5082837;28;20648;-71
2022/05/04 04:09:23;;;;;;;5.20;4.70;;;13.20;99.90;;;;;;5090143;28;20256;-71
2022/05/04 04:11:52;;;;;;;5.95;5.38;;;13.20;99.90;;;;;;5090054;28;20214;-71
2022/05/04 04:14:20;;;;;;;5.20;4.90;;;13.10;99.90;;;;;;5085436;28;20267;-71
2022/05/04 04:16:48;;;;;;;5.55;4.68;;;13.10;99.90;;;;;;5083979;28;20195;-71
2022/05/04 04:19:16;;;;;;;4.85;4.45;;;13.20;99.90;;;;;;5089101;28;20199;-72
2022/05/04 04:21:53;;;;;;;5.00;4.60;;;13.30;99.90;;;;;;5079736;28;20239;-72
2022/05/04 04:24:22;;;;;;;6.78;4.75;;;13.30;99.90;;;;;;5074035;28;20222;-71
2022/05/04 04:26:52;;;;;;;8.07;5.20;;;13.40;99.90;;;;;;5074269;28;20203;-74
2022/05/04 04:29:19;;;;;;;5.78;4.32;;;13.50;99.90;;;;;;5074272;28;20741;-72
2022/05/04 04:31:47;;;;;;;5.60;5.03;;;13.50;99.90;;;;;;5070900;28;20227;-68
2022/05/04 04:34:15;;;;;;;4.70;4.40;;;13.50;99.90;;;;;;5073174;28;20194;-71
2022/05/04 04:36:44;;;;;;;5.60;5.10;;;13.50;99.90;;;;;;5070335;28;20214;-71
2022/05/04 04:39:12;;;;;;;6.10;4.70;;;13.50;99.90;;;;;;5059270;28;20270;-72
2022/05/04 04:41:40;;;;;;;4.70;4.40;;;13.50;99.90;;;;;;5059873;28;20227;-70
2022/05/04 04:44:10;;;;;;;4.70;4.40;;;13.60;99.90;;;;;;5066552;28;20222;-70
2022/05/04 04:46:38;;;;;;;4.85;4.55;;;13.50;99.90;;;;;;5062471;28;20206;-71
2022/05/04 04:49:06;;;;;;;5.03;4.63;;;13.60;99.90;;;;;;5058506;28;20683;-70
2022/05/04 04:51:34;;;;;;;5.25;4.85;;;13.50;99.90;;;;;;5066690;28;20227;-68
2022/05/04 04:54:02;;;;;;;5.30;4.85;;;13.50;99.90;;;;;;5062147;28;20623;-70
2022/05/04 04:56:30;;;;;;;5.20;4.80;;;13.50;99.90;;;;;;5060471;28;20215;-73
2022/05/04 04:58:58;;;;;;;5.43;5.03;;;13.40;99.90;;;;;;5066796;28;20218;-68
2022/05/04 05:01:27;;;;;;;8.85;5.32;;;13.20;99.90;;;;;;5067301;28;20208;-70
2022/05/04 05:03:55;;;;;;;5.30;4.90;;;13.10;99.90;;;;;;5058083;28;20324;-69
2022/05/04 05:06:25;;;;;;;5.22;4.72;;;13.10;99.90;;;;;;5065574;28;20203;-68
2022/05/04 05:08:53;;;;;;;5.55;5.15;;;13.10;99.90;;;;;;5073733;28;20260;-70
2022/05/04 05:11:21;;;;;;;5.47;5.07;;;13.10;99.90;;;;;;5065087;28;21492;-70
2022/05/04 05:16:36;;;;;;;5.80;4.93;;;12.90;99.90;;;;;;5060690;28;20230;-70
2022/05/04 05:19:04;;;;;;;6.38;5.70;;;13.00;99.90;;;;;;5069947;28;20221;-70
2022/05/04 05:21:32;;;;;;;5.55;5.10;;;12.90;99.90;;;;;;5059801;28;20230;-69
2022/05/04 05:24:00;;;;;;;6.03;5.60;;;13.00;99.90;;;;;;5059823;28;20226;-69
2022/05/04 05:26:28;;;;;;;5.85;5.25;;;12.90;99.90;;;;;;5072426;28;20264;-70
2022/05/04 05:28:56;;;;;;;5.65;5.18;;;12.80;99.90;;;;;;5064807;28;20215;-70
2022/05/04 05:31:24;;;;;;;6.63;5.03;;;12.90;99.90;;;;;;5064315;28;20219;-70
2022/05/04 05:33:54;;;;;;;5.78;5.30;;;13.00;99.90;;;;;;5063679;28;20200;-71
2022/05/04 05:36:22;;;;;;;5.50;5.05;;;13.00;99.90;;;;;;5072644;28;20200;-70
2022/05/04 05:38:50;;;;;;;6.10;5.60;;;13.10;99.90;;;;;;5083396;28;20225;-70
2022/05/04 05:41:18;;;;;;;6.80;6.20;;;13.10;99.90;;;;;;5085816;28;20664;-70
2022/05/04 05:43:45;;;;;;;6.20;5.60;;;13.10;99.90;;;;;;5087345;28;20586;-70
2022/05/04 05:46:13;;;;;;;7.20;6.60;;;13.20;99.90;;;;;;5073046;28;21116;-73
2022/05/04 05:48:42;;;;;;;5.90;5.38;;;13.20;99.90;;;;;;5079031;28;20199;-73
2022/05/04 05:51:11;;;;;;;8.30;6.60;;;13.30;99.90;;;;;;5086423;28;20219;-69
2022/05/04 05:53:39;;;;;;;6.18;5.60;;;13.30;99.90;;;;;;5082678;28;20261;-70
2022/05/04 05:56:07;;;;;;;7.63;6.88;;;13.30;99.90;;;;;;5079689;28;20234;-69
2022/05/04 05:58:35;;;;;;;6.50;5.90;;;13.30;99.90;;;;;;5088671;28;20203;-70
2022/05/04 06:01:03;;;;;;;6.22;5.72;;;13.30;99.90;;;;;;5071640;28;20210;-70
2022/05/04 06:03:32;;;;;;;5.85;5.38;;;13.40;99.90;;;;;;5070283;28;20633;-73
2022/05/04 06:06:00;;;;;;;8.82;6.60;;;13.50;99.90;;;;;;5072167;28;20261;-70
2022/05/04 06:08:30;;;;;;;6.57;6.00;;;13.50;99.90;;;;;;5072067;28;20265;-70
2022/05/04 06:10:57;;;;;;;6.43;5.88;;;13.50;99.90;;;;;;5072605;28;20195;-70
2022/05/04 06:13:25;;;;;;;6.75;5.68;;;13.50;99.90;;;;;;5071570;28;20238;-70
2022/05/04 06:15:53;;;;;;;6.63;6.00;;;13.60;99.90;;;;;;5078773;28;20203;-70
2022/05/04 06:18:21;;;;;;;6.60;6.00;;;13.60;99.90;;;;;;5085144;28;20209;-70
2022/05/04 06:20:49;;;;;;;6.70;5.97;;;13.80;99.90;;;;;;5091825;28;20210;-70
2022/05/04 06:23:17;;;;;;;7.15;6.45;;;13.80;99.90;;;;;;5090653;28;20227;-70
2022/05/04 06:25:46;;;;;;;7.47;6.30;;;13.80;99.90;;;;;;5091259;28;20219;-70
2022/05/04 06:28:14;;;;;;;6.75;6.13;;;13.90;99.90;;;;;;5091305;28;20202;-72
2022/05/04 06:36:13;;;;;;;8.68;5.97;;;14.20;99.90;;;;;;5091480;28;20198;-74
2022/05/04 06:38:41;;;;;;;7.35;6.65;;;14.40;99.90;;;;;;5090962;28;20217;-74
2022/05/04 06:41:10;;;;;;;8.63;5.93;;;14.50;99.90;;;;;;5091269;28;20221;-75
2022/05/04 06:43:38;;;;;;;8.63;6.95;;;14.80;99.90;;;;;;5064479;28;20676;-73
2022/05/04 06:46:06;;;;;;;9.15;6.30;;;15.00;99.90;;;;;;5067174;28;20687;-73
2022/05/04 06:48:34;;;;;;;8.05;7.07;;;14.90;99.90;;;;;;5080510;28;20228;-73
2022/05/04 06:51:02;;;;;;;8.18;6.05;;;14.80;99.90;;;;;;5065071;28;20615;-74
2022/05/04 06:53:31;;;;;;;6.63;6.00;;;14.80;99.90;;;;;;5064330;28;20226;-73
2022/05/04 06:55:59;;;;;;;7.22;6.53;;;14.70;99.90;;;;;;5065002;28;20218;-73
2022/05/04 06:58:29;;;;;;;7.70;7.00;;;14.70;99.90;;;;;;5065193;28;20207;-73
2022/05/04 07:00:57;;;;;;;7.60;6.97;;;14.80;99.90;;;;;;5090714;28;20202;-73
2022/05/04 07:03:24;;;;;;;8.15;7.38;;;14.90;99.90;;;;;;5090108;28;20242;-75
2022/05/04 07:05:53;;;;;;;7.38;6.82;;;15.10;99.90;;;;;;5090668;28;20285;-70
2022/05/04 07:08:21;;;;;;;7.40;6.70;;;15.20;99.90;;;;;;5090395;28;20388;-71
2022/05/04 07:10:48;;;;;;;7.05;6.43;;;15.30;99.90;;;;;;5090712;28;20203;-71
2022/05/04 07:13:17;;;;;;;7.05;6.47;;;15.60;99.90;;;;;;5090052;28;20234;-73
2022/05/04 07:15:46;;;;;;;6.88;6.28;;;15.70;99.90;;;;;;5079771;28;20194;-73
2022/05/04 07:18:14;;;;;;;7.50;6.82;;;15.90;99.90;;;;;;5084329;28;20199;-73
2022/05/04 07:20:42;;;;;;;6.85;6.32;;;16.00;99.90;;;;;;5090488;28;20221;-74
2022/05/04 07:23:10;;;;;;;7.05;6.15;;;16.00;99.90;;;;;;5089803;28;20520;-70
2022/05/04 07:25:38;;;;;;;6.65;6.13;;;15.90;99.90;;;;;;5090946;28;20294;-71
2022/05/04 07:28:07;;;;;;;6.13;5.63;;;16.00;99.90;;;;;;5090396;28;20198;-70
2022/05/04 07:30:35;;;;;;;6.53;5.97;;;16.10;99.90;;;;;;5090495;28;20675;-71
2022/05/04 07:33:05;;;;;;;6.30;5.70;;;16.10;99.90;;;;;;5089671;28;20214;-71
2022/05/04 07:35:33;;;;;;;5.50;5.05;;;16.10;99.90;;;;;;5089769;28;20613;-70
2022/05/04 07:38:01;;;;;;;5.72;5.10;;;16.10;99.90;;;;;;5090244;28;20210;-70
2022/05/04 07:43:14;;;;;;;7.88;5.82;;;16.00;99.90;;;;;;5089730;28;20223;-70
2022/05/04 07:45:43;;;;;;;6.30;5.70;;;16.00;99.90;;;;;;5083383;28;20211;-70
2022/05/04 07:48:12;;;;;;;6.90;6.30;;;16.00;99.90;;;;;;5084707;28;20225;-71
2022/05/04 07:50:41;;;;;;;7.85;6.78;;;16.00;99.90;;;;;;5090239;28;20678;-71
2022/05/04 07:53:09;;;;;;;6.70;6.20;;;15.90;99.90;;;;;;5091764;28;20237;-71
2022/05/04 07:55:37;;;;;;;7.47;6.78;;;15.90;99.90;;;;;;5094193;28;20539;-71
2022/05/04 07:58:05;;;;;;;6.78;6.18;;;15.80;99.90;;;;;;5094194;28;20190;-70
2022/05/04 08:06:05;;;;;;;7.50;6.90;;;16.10;99.90;;;;;;5093615;28;20683;-71
2022/05/04 08:08:33;;;;;;;11.88;7.95;;;16.30;99.90;;;;;;5093904;28;20217;-70
2022/05/04 08:11:03;;;;;;;7.90;7.10;;;16.40;99.90;;;;;;5094289;28;20206;-71
2022/05/04 08:13:32;;;;;;;8.55;7.78;;;16.60;99.90;;;;;;5092904;28;20644;-71
2022/05/04 08:16:00;;;;;;;7.72;7.03;;;16.60;99.90;;;;;;5079157;28;20206;-74
2022/05/04 08:18:29;;;;;;;8.52;7.75;;;16.70;99.90;;;;;;5070625;28;20191;-72
2022/05/04 08:20:57;;;;;;;9.07;8.15;;;16.90;99.90;;;;;;5082382;28;20249;-71
2022/05/04 08:23:25;;;;;;;10.30;9.25;;;16.90;99.90;;;;;;5074803;28;20234;-71
2022/05/04 08:25:54;;;;;;;15.57;9.93;;;17.10;99.90;;;;;;5073539;28;20321;-71
2022/05/04 08:28:22;;;;;;;10.00;9.18;;;17.40;99.90;;;;;;5074726;28;20195;-68
2022/05/04 08:30:50;;;;;;;10.35;8.65;;;17.50;99.90;;;;;;5074330;28;20664;-71
2022/05/04 08:33:18;;;;;;;8.65;7.95;;;17.60;99.90;;;;;;5073396;28;20223;-71
2022/05/04 08:35:47;;;;;;;9.95;9.00;;;17.70;99.90;;;;;;5073405;28;20664;-70
2022/05/04 08:38:16;;;;;;;9.27;8.48;;;17.70;99.90;;;;;;5074133;28;20250;-71
2022/05/04 08:40:44;;;;;;;9.30;8.55;;;17.90;99.90;;;;;;5073969;28;20207;-73
2022/05/04 08:43:13;;;;;;;10.65;9.60;;;18.10;99.90;;;;;;5073491;28;20230;-74
2022/05/04 08:45:43;;;;;;;9.15;8.30;;;18.30;99.90;;;;;;5073260;28;20215;-71
2022/05/04 08:48:11;;;;;;;8.85;7.95;;;18.40;99.90;;;;;;5073303;28;20652;-72
2022/05/04 08:50:40;;;;;;;10.25;9.00;;;18.60;99.90;;;;;;5089004;28;20198;-72
2022/05/04 08:53:10;;;;;;;9.35;8.50;;;18.60;99.90;;;;;;5092706;28;20215;-72
2022/05/04 08:55:39;;;;;;;9.05;8.15;;;18.80;99.90;;;;;;5092922;28;20299;-74
2022/05/04 08:58:07;;;;;;;9.88;8.70;;;19.20;99.90;;;;;;5066671;28;20609;-73
2022/05/04 09:00:36;;;;;;;9.43;8.52;;;19.70;99.90;;;;;;5067307;28;20199;-73
2022/05/04 09:03:06;;;;;;;10.38;9.30;;;20.00;99.90;;;;;;5066064;28;20226;-73
2022/05/04 09:05:40;;;;;;;9.57;8.77;;;20.20;99.90;;;;;;5067355;28;20203;-73
2022/05/04 09:08:10;;;;;;;9.05;8.35;;;20.00;99.90;;;;;;5072874;28;20209;-73
2022/05/04 09:10:45;;;;;;;8.88;8.18;;;20.10;99.90;;;;;;5073850;28;20248;-72
2022/05/04 09:13:13;;;;;;;10.23;8.05;;;20.40;99.90;;;;;;5072751;28;20259;-72
2022/05/04 09:15:41;;;;;;;9.57;8.68;;;20.60;99.90;;;;;;5073029;28;20227;-73
2022/05/04 09:18:16;;;;;;;8.77;7.88;;;20.50;99.90;;;;;;5076093;28;20321;-72
2022/05/04 09:20:53;;;;;;;8.20;7.40;;;20.30;99.90;;;;;;5083097;28;20656;-73
2022/05/04 09:23:25;;;;;;;8.85;8.13;;;20.30;99.90;;;;;;5088215;22;20303;-65
2022/05/04 09:25:54;;;;;;;8.82;7.97;;;20.20;99.90;;;;;;5002897;28;20213;-64
2022/05/04 09:28:24;;;;;;;8.50;7.80;;;20.30;99.90;;;;;;4991155;28;20280;-65
2022/05/04 09:30:55;;;;;;;11.23;7.60;;;20.20;99.90;;;;;;4990520;28;20608;-65
2022/05/04 09:33:26;;;;;;;9.27;8.48;;;19.80;99.90;;;;;;4989577;28;20289;-64
2022/05/04 09:35:55;;;;;;;8.88;7.97;;;19.80;99.90;;;;;;4989788;28;20622;-64
2022/05/04 09:46:58;;;;;;;9.88;7.95;;;21.30;99.90;;;;;;4967748;28;20679;-64
2022/05/04 09:49:30;;;;;;;8.05;7.35;;;21.40;99.70;;;;;;4984852;28;20210;-64
2022/05/04 09:52:04;;;;;;;8.05;7.35;;;21.70;99.60;;;;;;4989316;28;20274;-67
2022/05/04 09:54:36;;;;;;;8.43;7.57;;;21.70;98.70;;;;;;4989506;28;20769;-65
2022/05/04 09:57:06;;;;;;;8.50;7.85;;;21.60;98.90;;;;;;4990106;28;20248;-65
2022/05/04 09:59:36;;;;;;;7.40;6.80;;;21.80;99.90;;;;;;4989849;28;20297;-64
2022/05/04 10:02:09;;;;;;;8.40;7.60;;;22.20;98.50;;;;;;4989264;28;20725;-65
2022/05/04 10:04:37;;;;;;;7.93;7.20;;;22.60;98.30;;;;;;4989598;28;20234;-65
2022/05/04 10:07:11;;;;;;;7.22;6.65;;;22.90;97.60;;;;;;4989766;28;20256;-65
2022/05/04 10:09:41;;;;;;;7.85;6.82;;;22.80;96.70;;;;;;4989986;28;20750;-65
2022/05/04 10:12:10;;;;;;;7.82;7.13;;;22.80;97.40;;;;;;4989259;28;20263;-65
2022/05/04 10:14:40;;;;;;;8.05;7.22;;;23.00;98.00;;;;;;4988963;28;20233;-66
2022/05/04 10:17:14;;;;;;;7.63;5.75;;;23.10;97.50;;;;;;4989212;28;20221;-66
2022/05/04 10:19:48;;;;;;;6.72;6.10;;;23.60;96.70;;;;;;4992041;28;20215;-65
2022/05/04 10:22:22;;;;;;;8.60;7.80;;;23.80;97.30;;;;;;5006389;28;20201;-65
2022/05/04 10:24:51;;;;;;;8.80;8.00;;;24.00;95.70;;;;;;4989655;28;20280;-65
2022/05/04 10:27:21;;;;;;;6.40;5.90;;;23.60;96.00;;;;;;4989460;28;20690;-65
2022/05/04 10:32:37;;;;;;;8.13;7.43;;;23.80;95.80;;;;;;4989166;28;20210;-65
2022/05/04 10:35:22;;;;;;;6.75;6.15;;;24.10;95.90;;;;;;4989361;28;20252;-65
2022/05/04 10:38:03;;;;;;;7.68;6.70;;;24.40;96.20;;;;;;4989218;28;20266;-65
2022/05/04 10:40:34;;;;;;;7.95;7.35;;;24.30;95.30;;;;;;4989234;28;20237;-65
2022/05/04 10:43:05;;;;;;;7.07;5.63;;;24.40;94.10;;;;;;4989073;28;20271;-65
2022/05/04 10:45:34;;;;;;;7.50;6.80;;;24.80;94.80;;;;;;4989340;28;20666;-65
2022/05/04 10:48:15;;;;;;;9.05;6.32;;;25.00;94.00;;;;;;4988715;28;20249;-65
2022/05/04 10:50:50;;;;;;;8.73;7.93;;;24.90;94.30;;;;;;4986513;28;20209;-66
2022/05/04 10:53:35;;;;;;;8.02;7.28;;;24.50;94.60;;;;;;4988426;28;20545;-65
2022/05/04 10:56:06;;;;;;;8.80;8.10;;;24.60;94.40;;;;;;4989247;28;20210;-65
2022/05/04 10:58:39;;;;;;;8.68;7.82;;;24.80;94.10;;;;;;4989184;28;20240;-65
2022/05/04 11:01:10;;;;;;;7.93;7.22;;;24.90;93.20;;;;;;4988873;28;20209;-65
2022/05/04 11:03:49;;;;;;;8.63;7.82;;;24.70;94.40;;;;;;4988246;28;20222;-65
2022/05/04 11:06:28;;;;;;;7.93;7.13;;;24.60;93.00;;;;;;4982726;28;20693;-65
2022/05/04 11:08:59;;;;;;;8.57;7.80;;;24.70;93.00;;;;;;4984379;28;20255;-65
2022/05/04 11:11:29;;;;;;;9.45;8.55;;;24.50;93.60;;;;;;4989110;28;20225;-64
2022/05/04 11:13:57;;;;;;;7.90;7.35;;;24.40;93.00;;;;;;4986678;28;20320;-64
2022/05/04 11:16:26;;;;;;;9.27;8.63;;;24.40;93.60;;;;;;4988385;28;20682;-64
2022/05/04 11:18:54;;;;;;;9.18;7.25;;;24.20;93.00;;;;;;4991008;28;20216;-65
2022/05/04 11:21:22;;;;;;;8.43;7.90;;;24.20;94.10;;;;;;5013800;28;20206;-64
2022/05/04 11:23:52;;;;;;;9.50;8.60;;;24.00;93.90;;;;;;4987750;28;20287;-64
2022/05/04 11:26:21;;;;;;;8.60;7.80;;;24.00;93.50;;;;;;4988210;28;20202;-65
2022/05/04 11:28:52;;;;;;;9.40;8.43;;;24.00;93.90;;;;;;4988757;28;20226;-65
2022/05/04 11:31:21;;;;;;;10.07;9.13;;;24.10;94.50;;;;;;4988680;28;20239;-64
2022/05/04 11:33:50;;;;;;;10.18;9.27;;;24.00;93.80;;;;;;4987724;28;20221;-64
2022/05/04 11:36:19;;;;;;;9.63;8.73;;;23.70;94.10;;;;;;4988065;28;20229;-64
2022/05/04 11:38:48;;;;;;;8.13;7.40;;;23.40;94.20;;;;;;4988492;28;20289;-64
2022/05/04 11:41:18;;;;;;;9.30;8.40;;;23.20;95.10;;;;;;4988525;28;20236;-64
2022/05/04 11:43:45;;;;;;;8.18;7.45;;;23.10;95.70;;;;;;4987438;28;20267;-64
2022/05/04 11:46:15;;;;;;;9.07;8.32;;;23.10;95.70;;;;;;4987828;28;20242;-64
2022/05/04 11:48:45;;;;;;;9.82;7.30;;;23.10;95.10;;;;;;4987976;28;20261;-64
2022/05/04 11:51:14;;;;;;;9.05;8.15;;;23.30;96.30;;;;;;4988380;28;20210;-64
2022/05/04 11:53:42;;;;;;;7.85;7.15;;;23.70;94.70;;;;;;4987308;28;20225;-64
2022/05/04 11:56:11;;;;;;;7.90;7.25;;;24.40;95.20;;;;;;4988134;28;20233;-64
2022/05/04 11:58:39;;;;;;;7.47;6.85;;;25.00;93.50;;;;;;4988573;28;20238;-64
2022/05/04 12:01:08;;;;;;;7.70;7.10;;;24.90;93.20;;;;;;4988303;28;20288;-64
2022/05/04 12:03:39;;;;;;;8.30;7.50;;;24.50;93.90;;;;;;4987138;28;20593;-64
2022/05/04 12:06:10;;;;;;;7.93;7.00;;;24.80;93.30;;;;;;4987684;28;20229;-65
2022/05/04 12:08:39;;;;;;;6.80;6.28;;;25.10;93.00;;;;;;4988297;28;20262;-65
2022/05/04 12:11:08;;;;;;;6.40;5.90;;;25.20;92.50;;;;;;4988340;28;20210;-64
2022/05/04 12:13:37;;;;;;;6.47;5.97;;;25.30;92.90;;;;;;4987394;28;20261;-64
2022/05/04 12:16:06;;;;;;;9.60;6.85;;;25.80;93.20;;;;;;4980650;28;20240;-64
2022/05/04 12:18:35;;;;;;;7.80;7.10;;;26.20;92.60;;;;;;4989024;28;20202;-64
2022/05/04 12:21:09;;;;;;;6.95;6.45;;;26.30;91.30;;;;;;5012407;28;20674;-65
2022/05/04 12:23:39;;;;;;;5.75;5.20;;;26.40;91.90;;;;;;4981769;28;20272;-64
2022/05/04 12:26:08;;;;;;;6.00;5.60;;;26.70;92.00;;;;;;4988481;28;20260;-65
2022/05/04 12:28:36;;;;;;;5.80;5.30;;;26.40;91.00;;;;;;4987887;28;20241;-64
2022/05/04 12:33:50;;;;;;;4.97;4.43;;;25.50;91.00;;;;;;4987192;28;20275;-64
2022/05/04 12:36:20;;;;;;;6.18;5.68;;;25.10;91.40;;;;;;4987758;28;20202;-64
2022/05/04 12:38:49;;;;;;;6.90;6.30;;;25.00;91.70;;;;;;4989219;28;20229;-65
2022/05/04 12:41:19;;;;;;;6.28;5.78;;;24.90;91.70;;;;;;4991075;28;20255;-64
2022/05/04 12:43:49;;;;;;;6.47;5.97;;;25.20;91.60;;;;;;4990231;28;20316;-63
2022/05/04 12:46:19;;;;;;;6.00;5.40;;;25.80;90.90;;;;;;4991167;28;20334;-65
2022/05/04 12:48:49;;;;;;;5.85;5.35;;;26.30;90.40;;;;;;4989726;28;20247;-65
2022/05/04 12:51:19;;;;;;;6.95;6.38;;;26.80;90.30;;;;;;4991214;28;20252;-64
2022/05/04 12:53:48;;;;;;;7.00;6.40;;;26.90;89.60;;;;;;4990058;28;20277;-65
2022/05/04 12:59:03;;;;;;;5.00;4.53;;;26.80;89.60;;;;;;4990942;28;20214;-63
2022/05/04 13:01:33;;;;;;;5.72;5.32;;;27.10;90.40;;;;;;4990923;28;20551;-65
2022/05/04 13:04:01;;;;;;;4.90;4.40;;;26.80;87.90;;;;;;4989814;28;20229;-65
2022/05/04 13:06:30;;;;;;;4.90;4.50;;;26.80;89.30;;;;;;4990328;28;20548;-65
2022/05/04 13:08:58;;;;;;;6.10;5.50;;;26.40;89.40;;;;;;4990754;28;20245;-65
2022/05/04 13:11:26;;;;;;;5.15;4.85;;;25.90;90.10;;;;;;4990358;28;20657;-65
2022/05/04 13:13:55;;;;;;;5.68;5.18;;;25.70;90.30;;;;;;4989944;28;20222;-65
2022/05/04 13:16:29;;;;;;;6.95;6.35;;;25.10;91.10;;;;;;4988872;28;20212;-65
2022/05/04 13:18:58;;;;;;;6.95;6.07;;;24.10;91.90;;;;;;4991682;28;20198;-65
2022/05/04 13:21:26;;;;;;;5.78;5.28;;;23.40;92.60;;;;;;5013614;28;20659;-63
2022/05/04 13:24:02;;;;;;;7.40;6.07;;;23.10;93.10;;;;;;4989591;28;20233;-65
2022/05/04 13:26:30;;;;;;;5.82;5.43;;;23.10;93.40;;;;;;4990121;28;20210;-65
2022/05/04 13:28:58;;;;;;;6.55;5.95;;;23.20;93.30;;;;;;4990412;28;20676;-63
2022/05/04 13:31:26;;;;;;;5.15;4.85;;;23.00;92.50;;;;;;4990248;28;20275;-65
2022/05/04 13:33:55;;;;;;;6.60;6.00;;;22.80;93.00;;;;;;4989291;28;20639;-65